createdAt,value
2018-07-06T00:02:19.078Z,60.90
2018-07-06T00:04:58.801Z,61.30
2018-07-06T00:07:38.542Z,61.40
2018-07-06T00:10:18.107Z,61.70
2018-07-06T00:12:57.847Z,63.10
2018-07-06T00:18:11.374Z,62.80
2018-07-06T00:20:50.881Z,63.10
2018-07-06T00:23:30.559Z,64.00
2018-07-06T00:26:11.116Z,63.90
2018-07-06T00:28:51.077Z,62.50
2018-07-06T00:31:30.705Z,62.50
2018-07-06T00:34:10.422Z,63.00
2018-07-06T00:36:50.197Z,64.50
2018-07-06T00:39:29.826Z,64.20
2018-07-06T00:42:10.267Z,64.60
2018-07-06T00:44:50.083Z,65.30
2018-07-06T00:47:29.710Z,65.50
2018-07-06T00:50:09.309Z,66.10
2018-07-06T00:52:49.032Z,65.90
2018-07-06T00:55:28.663Z,66.40
2018-07-06T01:00:41.980Z,66.10
2018-07-06T01:03:21.544Z,67.00
2018-07-06T01:06:01.259Z,66.20
2018-07-06T01:08:40.922Z,66.70
2018-07-06T01:11:20.566Z,66.70
2018-07-06T01:14:00.295Z,67.60
2018-07-06T01:16:39.932Z,68.20
2018-07-06T01:19:19.535Z,68.80
2018-07-06T01:21:59.203Z,69.20
2018-07-06T01:24:38.984Z,69.60
2018-07-06T01:27:18.756Z,68.50
2018-07-06T01:29:58.530Z,68.70
2018-07-06T01:32:38.298Z,67.70
2018-07-06T01:35:17.892Z,67.70
2018-07-06T01:37:57.653Z,70.00
2018-07-06T01:40:37.411Z,68.10
2018-07-06T01:43:17.047Z,68.40
2018-07-06T01:45:56.663Z,66.40
2018-07-06T01:48:36.276Z,67.20
2018-07-06T01:51:16.056Z,65.90
2018-07-06T01:53:55.808Z,65.60
2018-07-06T01:56:35.671Z,66.90
2018-07-06T01:59:15.379Z,69.10
2018-07-06T02:01:54.995Z,69.10
2018-07-06T02:04:34.530Z,67.00
2018-07-06T02:07:14.082Z,66.50
2018-07-06T02:09:53.703Z,68.00
2018-07-06T02:12:33.580Z,69.20
2018-07-06T02:15:13.143Z,68.90
2018-07-06T02:17:52.775Z,67.50
2018-07-06T02:20:32.563Z,68.90
2018-07-06T02:23:12.302Z,68.00
2018-07-06T02:25:51.999Z,68.00
2018-07-06T02:28:31.717Z,68.00
2018-07-06T02:31:15.412Z,68.50
2018-07-06T02:33:56.799Z,67.30
2018-07-06T02:36:41.328Z,66.40
2018-07-06T02:39:21.166Z,66.90
2018-07-06T02:42:02.139Z,67.50
2018-07-06T02:44:42.334Z,67.30
2018-07-06T02:47:22.486Z,68.90
2018-07-06T02:50:02.294Z,68.50
2018-07-06T02:52:42.180Z,68.90
2018-07-06T02:55:22.492Z,68.70
2018-07-06T02:58:01.996Z,69.00
2018-07-06T03:00:41.631Z,67.40
2018-07-06T03:03:21.343Z,68.70
2018-07-06T03:06:01.867Z,68.60
2018-07-06T03:08:41.505Z,70.00
2018-07-06T03:11:21.296Z,69.80
2018-07-06T03:14:00.951Z,69.60
2018-07-06T03:16:40.514Z,68.70
2018-07-06T03:19:20.201Z,69.70
2018-07-06T03:21:59.736Z,69.70
2018-07-06T03:24:39.424Z,68.80
2018-07-06T03:27:19.465Z,69.70
2018-07-06T03:29:59.187Z,68.60
2018-07-06T03:32:38.976Z,69.50
2018-07-06T03:37:52.454Z,69.30
2018-07-06T03:40:32.163Z,69.30
2018-07-06T03:43:11.933Z,69.50
2018-07-06T03:45:51.538Z,68.50
2018-07-06T03:48:31.144Z,68.00
2018-07-06T03:51:10.851Z,68.30
2018-07-06T03:53:50.679Z,68.30
2018-07-06T03:59:06.743Z,68.20
2018-07-06T04:01:46.498Z,67.40
2018-07-06T04:04:26.265Z,67.50
2018-07-06T04:07:06.023Z,66.80
2018-07-06T04:09:45.692Z,67.30
2018-07-06T04:12:25.386Z,68.60
2018-07-06T04:15:05.066Z,66.70
2018-07-06T04:17:44.851Z,64.80
2018-07-06T04:20:24.669Z,64.90
2018-07-06T04:23:04.311Z,64.30
2018-07-06T04:25:43.987Z,63.70
2018-07-06T04:28:23.788Z,63.30
2018-07-06T04:31:03.547Z,62.40
2018-07-06T04:33:43.296Z,62.40
2018-07-06T04:36:23.126Z,62.70
2018-07-06T04:39:03.191Z,62.20
2018-07-06T04:41:42.791Z,62.10
2018-07-06T04:44:22.623Z,63.10
2018-07-06T04:47:02.335Z,63.50
2018-07-06T04:49:41.963Z,63.20
2018-07-06T04:54:55.186Z,62.10
2018-07-06T04:57:35.072Z,61.90
2018-07-06T05:00:14.731Z,61.30
2018-07-06T05:02:54.319Z,61.00
2018-07-06T05:05:34.127Z,60.70
2018-07-06T05:08:13.891Z,61.20
2018-07-06T05:10:53.546Z,61.10
2018-07-06T05:13:33.182Z,61.00
2018-07-06T05:16:13.057Z,60.20
2018-07-06T05:18:52.791Z,60.20
2018-07-06T05:21:32.541Z,59.70
2018-07-06T05:24:12.221Z,59.60
2018-07-06T05:29:25.660Z,59.30
2018-07-06T05:32:05.214Z,59.40
2018-07-06T05:34:44.937Z,59.10
2018-07-06T05:37:24.667Z,59.00
2018-07-06T05:40:04.342Z,58.80
2018-07-06T05:42:44.019Z,58.80
2018-07-06T05:45:23.735Z,58.50
2018-07-06T05:48:03.249Z,58.40
2018-07-06T05:50:42.859Z,58.30
2018-07-06T05:53:22.530Z,58.40
2018-07-06T05:56:02.313Z,58.60
2018-07-06T05:58:42.188Z,58.80
2018-07-06T06:01:21.869Z,58.40
2018-07-06T06:04:01.707Z,58.30
2018-07-06T06:06:41.348Z,58.10
2018-07-06T06:22:15.703Z,58.10
2018-07-06T06:24:44.098Z,57.80
2018-07-06T06:27:12.427Z,58.10
2018-07-06T06:29:40.776Z,57.80
2018-07-06T06:32:09.792Z,57.80
2018-07-06T06:34:38.126Z,57.80
2018-07-06T06:37:06.420Z,57.50
2018-07-06T06:39:34.836Z,57.80
2018-07-06T06:42:03.533Z,58.00
2018-07-06T06:44:31.906Z,57.80
2018-07-06T06:47:00.691Z,57.60
2018-07-06T06:49:30.284Z,57.50
2018-07-06T06:51:59.175Z,58.10
2018-07-06T06:54:27.613Z,57.50
2018-07-06T06:56:55.979Z,56.90
2018-07-06T07:01:52.471Z,56.70
2018-07-06T07:04:21.391Z,56.50
2018-07-06T07:06:49.750Z,56.30
2018-07-06T07:09:18.122Z,56.20
2018-07-06T07:11:46.445Z,56.00
2018-07-06T07:14:14.892Z,55.90
2018-07-06T07:16:43.305Z,55.70
2018-07-06T07:19:11.608Z,55.50
2018-07-06T07:21:39.924Z,55.10
2018-07-06T07:24:08.283Z,55.00
2018-07-06T07:26:36.696Z,54.90
2018-07-06T07:29:05.086Z,54.80
2018-07-06T07:31:33.479Z,54.60
2018-07-06T07:34:01.893Z,54.00
2018-07-06T07:36:30.238Z,54.00
2018-07-06T07:38:58.702Z,54.00
2018-07-06T07:41:26.998Z,53.90
2018-07-06T07:46:23.544Z,53.10
2018-07-06T07:48:51.884Z,53.10
2018-07-06T07:52:12.025Z,53.00
2018-07-06T07:54:47.314Z,52.20
2018-07-06T07:57:15.745Z,52.50
2018-07-06T07:59:44.458Z,52.30
2018-07-06T08:02:13.026Z,51.90
2018-07-06T08:04:41.901Z,51.60
2018-07-06T08:07:10.289Z,51.30
2018-07-06T08:09:38.716Z,51.10
2018-07-06T08:12:07.120Z,50.90
2018-07-06T08:14:35.481Z,50.60
2018-07-06T08:17:03.842Z,50.50
2018-07-06T08:19:32.219Z,48.60
2018-07-06T08:22:00.596Z,48.50
2018-07-06T08:24:28.940Z,49.10
2018-07-06T08:26:57.280Z,48.60
2018-07-06T08:29:25.630Z,48.50
2018-07-06T08:31:54.027Z,48.60
2018-07-06T08:37:54.236Z,48.60
2018-07-06T08:40:23.729Z,48.60
2018-07-06T08:42:53.490Z,48.10
2018-07-06T08:45:21.928Z,47.80
2018-07-06T08:47:50.315Z,48.40
2018-07-06T08:50:18.686Z,47.40
2018-07-06T08:52:48.347Z,48.00
2018-07-06T08:55:17.048Z,47.60
2018-07-06T08:57:47.198Z,45.60
2018-07-06T09:00:16.232Z,44.90
2018-07-06T09:02:44.587Z,43.70
2018-07-06T09:05:13.435Z,43.10
2018-07-06T09:12:38.339Z,42.20
2018-07-06T09:15:07.225Z,41.80
2018-07-06T09:17:35.696Z,41.60
2018-07-06T09:20:04.189Z,41.30
2018-07-06T09:22:32.721Z,40.90
2018-07-06T09:25:04.466Z,40.90
2018-07-06T09:27:32.823Z,40.70
2018-07-06T09:30:01.176Z,40.50
2018-07-06T09:32:29.653Z,40.40
2018-07-06T09:34:58.801Z,40.10
2018-07-06T09:37:27.125Z,39.80
2018-07-06T09:39:55.520Z,39.80
2018-07-06T09:42:23.935Z,39.70
2018-07-06T09:44:52.307Z,39.50
2018-07-06T09:47:20.700Z,39.30
2018-07-06T09:49:49.177Z,39.30
2018-07-06T09:54:45.698Z,39.30
2018-07-06T09:57:14.081Z,39.20
2018-07-06T09:59:42.462Z,39.10
2018-07-06T10:02:10.809Z,39.10
2018-07-06T10:04:39.196Z,38.80
2018-07-06T10:07:07.545Z,38.90
2018-07-06T10:09:35.980Z,38.90
2018-07-06T10:12:04.340Z,38.70
2018-07-06T10:14:32.698Z,38.70
2018-07-06T10:17:01.171Z,38.60
2018-07-06T10:19:29.720Z,39.30
2018-07-06T10:21:58.096Z,38.60
2018-07-06T10:24:26.448Z,38.50
2018-07-06T10:26:54.755Z,38.60
2018-07-06T10:29:31.397Z,38.40
2018-07-06T10:32:24.160Z,38.50
2018-07-06T10:34:52.567Z,38.40
2018-07-06T10:37:21.149Z,38.50
2018-07-06T10:39:50.124Z,38.50
2018-07-06T10:42:18.469Z,38.50
2018-07-06T10:44:46.818Z,38.40
2018-07-06T10:47:15.247Z,38.50
2018-07-06T10:49:43.744Z,38.40
2018-07-06T10:52:12.971Z,38.40
2018-07-06T10:54:42.289Z,38.40
2018-07-06T10:57:10.671Z,38.50
2018-07-06T10:59:39.155Z,38.40
2018-07-06T11:02:07.695Z,38.50
2018-07-06T11:04:36.014Z,38.50
2018-07-06T11:07:04.396Z,38.50
2018-07-06T11:09:33.426Z,38.50
2018-07-06T11:12:01.841Z,38.60
2018-07-06T11:14:30.214Z,38.50
2018-07-06T11:16:58.631Z,38.60
2018-07-06T11:19:27.099Z,38.70
2018-07-06T11:21:55.486Z,38.60
2018-07-06T11:24:23.831Z,38.80
2018-07-06T11:26:52.207Z,38.70
2018-07-06T11:29:20.546Z,38.80
2018-07-06T11:31:48.911Z,38.90
2018-07-06T11:34:17.257Z,38.80
2018-07-06T11:39:13.776Z,39.00
2018-07-06T11:41:42.114Z,39.00
2018-07-06T11:44:10.461Z,39.10
2018-07-06T11:46:39.443Z,39.10
2018-07-06T11:49:07.782Z,39.10
2018-07-06T11:51:36.193Z,39.20
2018-07-06T11:54:04.550Z,39.10
2018-07-06T11:56:32.851Z,39.10
2018-07-06T11:59:01.410Z,39.30
2018-07-06T12:01:29.839Z,39.30
2018-07-06T12:03:58.206Z,39.50
2018-07-06T12:06:26.544Z,39.40
2018-07-06T12:08:54.859Z,39.70
2018-07-06T12:11:23.296Z,39.40
2018-07-06T12:13:51.661Z,39.50
2018-07-06T12:16:20.011Z,39.60
2018-07-06T12:18:48.347Z,39.60
2018-07-06T12:21:16.697Z,39.70
2018-07-06T12:23:45.026Z,39.80
2018-07-06T12:26:13.372Z,39.80
2018-07-06T12:28:41.676Z,39.90
2018-07-06T12:31:09.988Z,39.90
2018-07-06T12:33:38.338Z,40.60
2018-07-06T12:36:06.799Z,40.00
2018-07-06T12:38:35.127Z,40.00
2018-07-06T12:41:03.434Z,40.10
2018-07-06T12:43:31.829Z,40.10
2018-07-06T12:46:00.232Z,40.20
2018-07-06T12:48:28.567Z,40.30
2018-07-06T12:50:56.901Z,40.30
2018-07-06T12:53:25.246Z,40.40
2018-07-06T12:55:53.575Z,40.50
2018-07-06T12:58:22.007Z,40.50
2018-07-06T13:00:50.306Z,40.50
2018-07-06T13:03:18.706Z,40.60
2018-07-06T13:05:47.119Z,40.60
2018-07-06T13:08:15.484Z,40.50
2018-07-06T13:10:43.791Z,40.70
2018-07-06T13:13:12.198Z,40.60
2018-07-06T13:15:40.533Z,40.70
2018-07-06T13:18:08.901Z,40.70
2018-07-06T13:20:37.195Z,40.70
2018-07-06T13:23:05.579Z,40.80
2018-07-06T13:25:33.879Z,40.90
2018-07-06T13:28:02.311Z,40.90
2018-07-06T13:30:30.672Z,41.10
2018-07-06T13:32:59.546Z,41.10
2018-07-06T13:35:27.860Z,41.10
2018-07-06T13:37:56.228Z,41.10
2018-07-06T13:40:24.580Z,41.10
2018-07-06T13:42:53.014Z,41.00
2018-07-06T13:45:21.379Z,41.30
2018-07-06T13:47:49.683Z,41.30
2018-07-06T13:50:17.983Z,41.20
2018-07-06T13:52:46.350Z,41.30
2018-07-06T13:55:14.679Z,41.40
2018-07-06T13:57:42.970Z,41.20
2018-07-06T14:00:11.290Z,41.20
2018-07-06T14:02:39.601Z,41.20
2018-07-06T14:05:07.970Z,41.30
2018-07-06T14:07:36.304Z,41.30
2018-07-06T14:10:05.167Z,41.30
2018-07-06T14:12:33.536Z,41.50
2018-07-06T14:15:01.876Z,41.40
2018-07-06T14:17:30.247Z,41.40
2018-07-06T14:19:58.527Z,41.40
2018-07-06T14:22:26.987Z,41.40
2018-07-06T14:24:55.287Z,41.70
2018-07-06T14:27:23.600Z,41.60
2018-07-06T14:29:51.951Z,41.70
2018-07-06T14:32:20.303Z,41.80
2018-07-06T14:34:48.600Z,41.80
2018-07-06T14:50:16.974Z,41.80
2018-07-06T14:52:45.283Z,42.20
2018-07-06T14:55:13.637Z,42.10
2018-07-06T14:57:41.918Z,42.30
2018-07-06T15:00:10.363Z,42.20
2018-07-06T15:02:38.715Z,42.40
2018-07-06T15:05:07.013Z,42.40
2018-07-06T15:07:35.327Z,42.40
2018-07-06T15:10:03.689Z,42.40
2018-07-06T15:12:32.089Z,42.40
2018-07-06T15:15:00.438Z,42.40
2018-07-06T15:17:28.740Z,42.50
2018-07-06T15:19:57.054Z,42.40
2018-07-06T15:22:25.433Z,42.70
2018-07-06T15:24:53.796Z,42.70
2018-07-06T15:27:22.119Z,42.30
2018-07-06T15:29:50.468Z,42.50
2018-07-06T15:32:18.810Z,42.40
2018-07-06T15:34:47.171Z,43.10
2018-07-06T15:37:15.557Z,43.20
2018-07-06T15:42:12.111Z,43.30
2018-07-06T15:44:40.493Z,43.30
2018-07-06T15:47:08.944Z,43.40
2018-07-06T15:49:37.339Z,43.30
2018-07-06T15:52:05.628Z,43.30
2018-07-06T15:54:34.013Z,43.20
2018-07-06T15:57:02.437Z,43.20
2018-07-06T15:59:30.843Z,43.20
2018-07-06T16:02:00.113Z,43.20
2018-07-06T16:04:28.498Z,43.10
2018-07-06T16:06:56.794Z,43.10
2018-07-06T16:09:25.101Z,43.10
2018-07-06T16:14:21.527Z,42.60
2018-07-06T16:16:49.918Z,43.20
2018-07-06T16:19:18.449Z,43.10
2018-07-06T16:21:46.751Z,43.10
2018-07-06T16:24:15.140Z,43.20
2018-07-06T16:26:43.726Z,43.70
2018-07-06T16:29:12.037Z,43.70
2018-07-06T16:31:40.539Z,43.80
2018-07-06T16:34:08.775Z,43.80
2018-07-06T16:36:37.076Z,43.80
2018-07-06T16:39:05.852Z,43.80
2018-07-06T16:41:34.194Z,43.80
2018-07-06T16:44:02.815Z,43.90
2018-07-06T16:46:31.902Z,43.90
2018-07-06T16:49:01.719Z,44.00
2018-07-06T16:51:30.090Z,44.20
2018-07-06T16:53:58.405Z,44.30
2018-07-06T16:56:27.205Z,44.10
2018-07-06T16:58:55.584Z,44.10
2018-07-06T17:01:23.932Z,44.10
2018-07-06T17:03:52.242Z,44.20
2018-07-06T17:06:20.576Z,44.20
2018-07-06T17:11:16.942Z,44.20
2018-07-06T17:13:45.230Z,44.30
2018-07-06T17:16:13.634Z,44.30
2018-07-06T17:18:41.976Z,44.30
2018-07-06T17:21:10.335Z,44.30
2018-07-06T17:23:39.316Z,44.40
2018-07-06T17:26:07.796Z,44.30
2018-07-06T17:28:36.160Z,44.40
2018-07-06T17:31:04.510Z,44.40
2018-07-06T17:33:32.891Z,44.50
2018-07-06T17:36:01.287Z,44.60
2018-07-06T17:38:29.628Z,44.70
2018-07-06T17:40:58.005Z,44.60
2018-07-06T18:30:21.614Z,45.20
2018-07-06T18:40:14.201Z,45.50
2018-07-06T18:42:42.542Z,45.60
2018-07-06T19:02:27.679Z,46.00
2018-07-06T19:07:24.134Z,45.20
2018-07-06T19:09:52.536Z,48.50
2018-07-06T19:12:20.894Z,49.10
2018-07-06T19:14:49.226Z,50.30
2018-07-06T19:17:17.639Z,50.00
2018-07-06T19:19:45.939Z,50.30
2018-07-06T19:22:14.267Z,50.30
2018-07-06T19:24:42.668Z,50.60
2018-07-06T19:27:11.032Z,50.50
2018-07-06T19:29:39.451Z,50.60
2018-07-06T19:32:07.883Z,50.90
2018-07-06T19:34:36.217Z,51.10
2018-07-06T19:37:04.708Z,50.90
2018-07-06T19:39:33.255Z,51.70
2018-07-06T19:42:01.806Z,52.10
2018-07-06T19:44:30.358Z,51.30
2018-07-06T19:46:58.872Z,51.60
2018-07-06T19:49:27.246Z,52.90
2018-07-06T19:51:55.558Z,53.10
2018-07-06T19:54:23.874Z,52.40
2018-07-06T19:56:52.249Z,52.50
2018-07-06T19:59:20.655Z,52.90
2018-07-06T20:01:48.989Z,53.00
2018-07-06T20:04:18.236Z,52.90
2018-07-06T20:06:46.567Z,53.70
2018-07-06T20:09:15.872Z,54.30
2018-07-06T20:11:45.366Z,55.30
2018-07-06T20:14:13.723Z,56.40
2018-07-06T20:16:42.318Z,56.30
2018-07-06T20:19:10.772Z,56.30
2018-07-06T20:21:39.206Z,56.40
2018-07-06T20:24:07.652Z,56.40
2018-07-06T20:26:36.058Z,57.50
2018-07-06T20:29:04.533Z,58.10
2018-07-06T20:31:32.783Z,58.20
2018-07-06T20:34:01.180Z,56.20
2018-07-06T20:36:29.626Z,55.10
2018-07-06T20:38:57.995Z,55.10
2018-07-06T20:41:26.378Z,55.20
2018-07-06T20:43:54.705Z,55.40
2018-07-06T20:46:23.088Z,55.10
2018-07-06T20:48:51.447Z,54.50
2018-07-06T20:51:20.237Z,55.60
2018-07-06T20:53:48.687Z,55.50
2018-07-06T20:56:16.998Z,54.60
2018-07-06T20:58:45.307Z,53.90
2018-07-06T21:01:13.604Z,53.80
2018-07-06T21:03:41.946Z,54.30
2018-07-06T21:06:10.293Z,55.30
2018-07-06T21:11:07.419Z,55.20
2018-07-06T21:13:36.106Z,55.50
2018-07-06T21:16:04.593Z,55.60
2018-07-06T21:18:33.080Z,56.70
2018-07-06T21:21:01.495Z,56.70
2018-07-06T21:23:29.963Z,57.40
2018-07-06T21:25:58.369Z,58.20
2018-07-06T21:28:26.765Z,59.20
2018-07-06T21:30:55.188Z,57.40
2018-07-06T21:33:23.564Z,58.10
2018-07-06T21:35:52.024Z,59.40
2018-07-06T21:38:20.365Z,57.80
2018-07-06T21:40:48.777Z,57.30
2018-07-06T21:43:17.195Z,57.80
2018-07-06T21:48:13.690Z,58.50
2018-07-06T21:50:42.085Z,59.00
2018-07-06T21:53:10.493Z,58.70
2018-07-06T21:55:39.058Z,58.60
2018-07-06T21:58:07.443Z,58.70
2018-07-06T22:00:38.275Z,58.70
2018-07-06T22:03:07.539Z,58.60
2018-07-06T22:05:36.014Z,58.10
2018-07-06T22:08:05.591Z,58.50
2018-07-06T22:10:34.753Z,59.30
2018-07-06T22:13:03.198Z,58.60
2018-07-06T22:15:37.079Z,58.70
2018-07-06T22:18:05.603Z,59.00
2018-07-06T22:20:34.007Z,58.80
2018-07-06T22:23:02.440Z,58.60
2018-07-06T22:25:30.863Z,59.30
2018-07-06T22:27:59.557Z,59.10
2018-07-06T22:30:27.985Z,59.30
2018-07-06T22:32:56.383Z,59.60
2018-07-06T22:35:25.198Z,59.00
2018-07-06T22:37:53.703Z,58.70
2018-07-06T22:40:22.054Z,57.10
2018-07-06T22:42:51.227Z,58.30
2018-07-06T22:45:19.576Z,60.10
2018-07-06T22:47:48.018Z,58.70
2018-07-06T22:50:16.421Z,59.10
2018-07-06T22:52:44.805Z,55.20
2018-07-06T22:55:13.208Z,59.00
2018-07-06T22:57:41.555Z,59.40
2018-07-06T23:00:09.940Z,58.10
2018-07-06T23:02:38.375Z,56.40
2018-07-06T23:05:12.354Z,58.60
2018-07-06T23:07:40.751Z,58.40
2018-07-06T23:10:09.125Z,57.90
2018-07-06T23:12:38.274Z,56.90
2018-07-06T23:15:06.716Z,57.60
2018-07-06T23:17:35.135Z,57.70
2018-07-06T23:20:03.636Z,57.60
2018-07-06T23:25:38.840Z,55.00
2018-07-06T23:28:07.247Z,56.80
2018-07-06T23:30:35.693Z,58.00
2018-07-06T23:33:04.927Z,57.90
2018-07-06T23:35:33.421Z,54.40
2018-07-06T23:38:01.806Z,57.30
2018-07-06T23:40:30.316Z,57.00
2018-07-06T23:42:58.768Z,56.80
2018-07-06T23:45:27.179Z,55.30
2018-07-06T23:47:55.639Z,56.30
2018-07-06T23:50:24.194Z,56.20
2018-07-06T23:52:52.706Z,55.40
2018-07-06T23:55:21.289Z,55.70
2018-07-06T23:57:50.052Z,56.50
